sensor_id;sensor_type;location;lat;lon;timestamp;P1;durP1;ratioP1;P2;durP2;ratioP2
16073;SDS011;8141;52.664;5.074;2023-05-14T00:01:53;6.87;;;3.93;;
16073;SDS011;8141;52.664;5.074;2023-05-14T00:04:18;11.07;;;4.30;;
16073;SDS011;8141;52.664;5.074;2023-05-14T00:06:44;7.33;;;3.97;;
16073;SDS011;8141;52.664;5.074;2023-05-14T00:09:10;11.67;;;4.00;;
16073;SDS011;8141;52.664;5.074;2023-05-14T00:11:37;10.03;;;4.13;;
16073;SDS011;8141;52.664;5.074;2023-05-14T00:14:03;9.87;;;4.40;;
16073;SDS011;8141;52.664;5.074;2023-05-14T00:16:29;7.67;;;4.90;;
16073;SDS011;8141;52.664;5.074;2023-05-14T00:18:55;10.07;;;4.10;;
16073;SDS011;8141;52.664;5.074;2023-05-14T00:21:20;14.83;;;5.00;;
16073;SDS011;8141;52.664;5.074;2023-05-14T00:23:46;6.73;;;3.73;;
16073;SDS011;8141;52.664;5.074;2023-05-14T00:26:12;7.20;;;4.20;;
16073;SDS011;8141;52.664;5.074;2023-05-14T00:28:37;9.63;;;4.30;;
16073;SDS011;8141;52.664;5.074;2023-05-14T00:31:03;7.40;;;4.23;;
16073;SDS011;8141;52.664;5.074;2023-05-14T00:33:29;8.27;;;4.30;;
16073;SDS011;8141;52.664;5.074;2023-05-14T00:35:55;5.77;;;4.07;;
16073;SDS011;8141;52.664;5.074;2023-05-14T00:38:20;6.43;;;4.00;;
16073;SDS011;8141;52.664;5.074;2023-05-14T00:40:48;7.47;;;3.67;;
16073;SDS011;8141;52.664;5.074;2023-05-14T00:43:19;5.13;;;3.87;;
16073;SDS011;8141;52.664;5.074;2023-05-14T00:45:46;6.60;;;3.67;;
16073;SDS011;8141;52.664;5.074;2023-05-14T00:48:15;8.47;;;4.10;;
16073;SDS011;8141;52.664;5.074;2023-05-14T00:50:41;6.00;;;3.63;;
16073;SDS011;8141;52.664;5.074;2023-05-14T00:53:07;7.63;;;3.97;;
16073;SDS011;8141;52.664;5.074;2023-05-14T00:55:38;6.00;;;3.43;;
16073;SDS011;8141;52.664;5.074;2023-05-14T00:58:08;5.30;;;3.80;;
16073;SDS011;8141;52.664;5.074;2023-05-14T01:00:36;5.40;;;4.20;;
16073;SDS011;8141;52.664;5.074;2023-05-14T01:03:03;6.43;;;3.33;;
16073;SDS011;8141;52.664;5.074;2023-05-14T01:14:33;7.40;;;3.60;;
16073;SDS011;8141;52.664;5.074;2023-05-14T01:17:43;8.80;;;3.40;;
16073;SDS011;8141;52.664;5.074;2023-05-14T01:20:14;10.57;;;4.20;;
16073;SDS011;8141;52.664;5.074;2023-05-14T01:22:40;4.40;;;3.77;;
16073;SDS011;8141;52.664;5.074;2023-05-14T01:25:06;12.90;;;4.17;;
16073;SDS011;8141;52.664;5.074;2023-05-14T01:27:48;6.20;;;3.70;;
16073;SDS011;8141;52.664;5.074;2023-05-14T01:30:34;5.50;;;3.40;;
16073;SDS011;8141;52.664;5.074;2023-05-14T01:33:09;8.33;;;3.73;;
16073;SDS011;8141;52.664;5.074;2023-05-14T01:35:38;4.13;;;3.70;;
16073;SDS011;8141;52.664;5.074;2023-05-14T01:38:05;6.37;;;3.30;;
16073;SDS011;8141;52.664;5.074;2023-05-14T01:40:35;6.87;;;3.70;;
16073;SDS011;8141;52.664;5.074;2023-05-14T01:43:02;6.57;;;3.63;;
16073;SDS011;8141;52.664;5.074;2023-05-14T01:45:29;5.73;;;3.30;;
16073;SDS011;8141;52.664;5.074;2023-05-14T01:47:55;5.23;;;3.63;;
16073;SDS011;8141;52.664;5.074;2023-05-14T01:50:21;7.47;;;3.07;;
16073;SDS011;8141;52.664;5.074;2023-05-14T01:52:47;7.90;;;3.70;;
16073;SDS011;8141;52.664;5.074;2023-05-14T01:55:13;5.60;;;3.43;;
16073;SDS011;8141;52.664;5.074;2023-05-14T01:57:40;4.77;;;3.53;;
16073;SDS011;8141;52.664;5.074;2023-05-14T02:00:06;4.20;;;3.30;;
16073;SDS011;8141;52.664;5.074;2023-05-14T02:02:32;5.17;;;3.30;;
16073;SDS011;8141;52.664;5.074;2023-05-14T02:04:58;5.20;;;3.10;;
16073;SDS011;8141;52.664;5.074;2023-05-14T02:07:23;6.27;;;3.27;;
16073;SDS011;8141;52.664;5.074;2023-05-14T02:09:49;3.77;;;3.20;;
16073;SDS011;8141;52.664;5.074;2023-05-14T02:12:15;3.83;;;2.70;;
16073;SDS011;8141;52.664;5.074;2023-05-14T02:14:41;9.60;;;4.00;;
16073;SDS011;8141;52.664;5.074;2023-05-14T02:17:06;4.20;;;3.40;;
16073;SDS011;8141;52.664;5.074;2023-05-14T02:19:32;6.37;;;3.40;;
16073;SDS011;8141;52.664;5.074;2023-05-14T02:21:58;5.43;;;3.27;;
16073;SDS011;8141;52.664;5.074;2023-05-14T02:24:25;4.00;;;3.27;;
16073;SDS011;8141;52.664;5.074;2023-05-14T02:26:51;6.10;;;3.10;;
16073;SDS011;8141;52.664;5.074;2023-05-14T02:29:17;4.83;;;3.50;;
16073;SDS011;8141;52.664;5.074;2023-05-14T02:31:42;7.27;;;3.37;;
16073;SDS011;8141;52.664;5.074;2023-05-14T02:34:08;4.87;;;3.10;;
16073;SDS011;8141;52.664;5.074;2023-05-14T02:36:34;4.40;;;3.30;;
16073;SDS011;8141;52.664;5.074;2023-05-14T02:39:00;5.07;;;3.37;;
16073;SDS011;8141;52.664;5.074;2023-05-14T02:41:26;5.83;;;3.13;;
16073;SDS011;8141;52.664;5.074;2023-05-14T02:43:52;6.00;;;3.13;;
16073;SDS011;8141;52.664;5.074;2023-05-14T02:46:18;5.23;;;3.20;;
16073;SDS011;8141;52.664;5.074;2023-05-14T02:48:44;4.77;;;3.00;;
16073;SDS011;8141;52.664;5.074;2023-05-14T02:51:10;5.03;;;3.40;;
16073;SDS011;8141;52.664;5.074;2023-05-14T02:53:36;3.20;;;2.70;;
16073;SDS011;8141;52.664;5.074;2023-05-14T02:56:01;6.70;;;3.33;;
16073;SDS011;8141;52.664;5.074;2023-05-14T02:58:27;5.53;;;2.93;;
16073;SDS011;8141;52.664;5.074;2023-05-14T03:00:53;5.23;;;2.97;;
16073;SDS011;8141;52.664;5.074;2023-05-14T03:03:19;3.40;;;2.30;;
16073;SDS011;8141;52.664;5.074;2023-05-14T03:05:45;5.97;;;3.50;;
16073;SDS011;8141;52.664;5.074;2023-05-14T03:08:11;3.40;;;2.60;;
16073;SDS011;8141;52.664;5.074;2023-05-14T03:10:37;5.13;;;2.80;;
16073;SDS011;8141;52.664;5.074;2023-05-14T03:13:02;5.93;;;2.97;;
16073;SDS011;8141;52.664;5.074;2023-05-14T03:15:28;3.37;;;2.93;;
16073;SDS011;8141;52.664;5.074;2023-05-14T03:17:54;4.67;;;2.80;;
16073;SDS011;8141;52.664;5.074;2023-05-14T03:20:20;2.80;;;2.60;;
16073;SDS011;8141;52.664;5.074;2023-05-14T03:22:48;3.60;;;2.73;;
16073;SDS011;8141;52.664;5.074;2023-05-14T03:25:14;4.13;;;2.73;;
16073;SDS011;8141;52.664;5.074;2023-05-14T03:27:40;5.60;;;2.53;;
16073;SDS011;8141;52.664;5.074;2023-05-14T03:30:05;3.90;;;2.80;;
16073;SDS011;8141;52.664;5.074;2023-05-14T03:32:32;5.37;;;2.60;;
16073;SDS011;8141;52.664;5.074;2023-05-14T03:34:58;4.60;;;2.57;;
16073;SDS011;8141;52.664;5.074;2023-05-14T03:37:23;3.30;;;2.53;;
16073;SDS011;8141;52.664;5.074;2023-05-14T03:39:49;4.53;;;2.43;;
16073;SDS011;8141;52.664;5.074;2023-05-14T03:42:15;3.27;;;2.70;;
16073;SDS011;8141;52.664;5.074;2023-05-14T03:44:41;3.53;;;2.80;;
16073;SDS011;8141;52.664;5.074;2023-05-14T03:47:06;4.70;;;2.63;;
16073;SDS011;8141;52.664;5.074;2023-05-14T03:49:32;3.20;;;2.60;;
16073;SDS011;8141;52.664;5.074;2023-05-14T03:51:58;2.77;;;2.20;;
16073;SDS011;8141;52.664;5.074;2023-05-14T03:54:24;2.33;;;2.13;;
16073;SDS011;8141;52.664;5.074;2023-05-14T03:56:50;3.47;;;2.43;;
16073;SDS011;8141;52.664;5.074;2023-05-14T03:59:16;3.47;;;2.60;;
16073;SDS011;8141;52.664;5.074;2023-05-14T04:01:42;3.20;;;2.40;;
16073;SDS011;8141;52.664;5.074;2023-05-14T04:04:08;2.90;;;2.33;;
16073;SDS011;8141;52.664;5.074;2023-05-14T04:06:34;2.90;;;2.23;;
16073;SDS011;8141;52.664;5.074;2023-05-14T04:09:00;2.90;;;2.60;;
16073;SDS011;8141;52.664;5.074;2023-05-14T04:11:27;3.37;;;2.30;;
16073;SDS011;8141;52.664;5.074;2023-05-14T04:13:53;3.60;;;2.50;;
16073;SDS011;8141;52.664;5.074;2023-05-14T04:16:19;2.43;;;2.23;;
16073;SDS011;8141;52.664;5.074;2023-05-14T04:18:45;3.00;;;2.27;;
16073;SDS011;8141;52.664;5.074;2023-05-14T04:21:10;3.10;;;2.80;;
16073;SDS011;8141;52.664;5.074;2023-05-14T04:23:36;3.13;;;2.53;;
16073;SDS011;8141;52.664;5.074;2023-05-14T04:26:02;3.67;;;2.20;;
16073;SDS011;8141;52.664;5.074;2023-05-14T04:28:29;2.90;;;2.50;;
16073;SDS011;8141;52.664;5.074;2023-05-14T04:30:55;2.43;;;2.00;;
16073;SDS011;8141;52.664;5.074;2023-05-14T04:33:20;2.70;;;2.30;;
16073;SDS011;8141;52.664;5.074;2023-05-14T04:35:46;3.03;;;2.40;;
16073;SDS011;8141;52.664;5.074;2023-05-14T04:38:12;2.50;;;2.30;;
16073;SDS011;8141;52.664;5.074;2023-05-14T04:40:38;4.03;;;2.40;;
16073;SDS011;8141;52.664;5.074;2023-05-14T04:43:05;2.93;;;2.47;;
16073;SDS011;8141;52.664;5.074;2023-05-14T04:45:32;2.60;;;2.27;;
16073;SDS011;8141;52.664;5.074;2023-05-14T04:47:57;4.77;;;2.30;;
16073;SDS011;8141;52.664;5.074;2023-05-14T04:50:23;2.57;;;2.37;;
16073;SDS011;8141;52.664;5.074;2023-05-14T04:52:49;5.00;;;2.00;;
16073;SDS011;8141;52.664;5.074;2023-05-14T04:55:15;5.50;;;2.30;;
16073;SDS011;8141;52.664;5.074;2023-05-14T04:57:41;4.07;;;1.90;;
16073;SDS011;8141;52.664;5.074;2023-05-14T05:00:07;2.47;;;2.27;;
16073;SDS011;8141;52.664;5.074;2023-05-14T05:02:35;2.60;;;2.00;;
16073;SDS011;8141;52.664;5.074;2023-05-14T05:05:01;4.00;;;2.43;;
16073;SDS011;8141;52.664;5.074;2023-05-14T05:07:28;2.77;;;2.17;;
16073;SDS011;8141;52.664;5.074;2023-05-14T05:09:53;2.57;;;2.37;;
16073;SDS011;8141;52.664;5.074;2023-05-14T05:12:19;4.93;;;2.53;;
16073;SDS011;8141;52.664;5.074;2023-05-14T05:14:45;2.97;;;2.07;;
16073;SDS011;8141;52.664;5.074;2023-05-14T05:17:11;3.17;;;2.03;;
16073;SDS011;8141;52.664;5.074;2023-05-14T05:19:37;5.07;;;2.30;;
16073;SDS011;8141;52.664;5.074;2023-05-14T05:22:03;3.83;;;1.97;;
16073;SDS011;8141;52.664;5.074;2023-05-14T05:24:28;3.70;;;2.07;;
16073;SDS011;8141;52.664;5.074;2023-05-14T05:26:54;2.77;;;2.07;;
16073;SDS011;8141;52.664;5.074;2023-05-14T05:29:21;6.23;;;2.30;;
16073;SDS011;8141;52.664;5.074;2023-05-14T05:31:47;3.90;;;1.97;;
16073;SDS011;8141;52.664;5.074;2023-05-14T05:34:13;8.10;;;2.03;;
16073;SDS011;8141;52.664;5.074;2023-05-14T05:36:39;4.93;;;2.30;;
16073;SDS011;8141;52.664;5.074;2023-05-14T05:39:05;2.33;;;2.00;;
16073;SDS011;8141;52.664;5.074;2023-05-14T05:41:31;3.20;;;2.20;;
16073;SDS011;8141;52.664;5.074;2023-05-14T05:43:56;4.47;;;2.03;;
16073;SDS011;8141;52.664;5.074;2023-05-14T05:46:22;6.50;;;2.40;;
16073;SDS011;8141;52.664;5.074;2023-05-14T05:48:48;3.37;;;2.00;;
16073;SDS011;8141;52.664;5.074;2023-05-14T05:51:14;3.13;;;1.90;;
16073;SDS011;8141;52.664;5.074;2023-05-14T05:53:39;2.33;;;1.80;;
16073;SDS011;8141;52.664;5.074;2023-05-14T05:56:05;6.87;;;2.07;;
16073;SDS011;8141;52.664;5.074;2023-05-14T05:58:31;3.47;;;1.90;;
16073;SDS011;8141;52.664;5.074;2023-05-14T06:00:57;2.73;;;2.00;;
16073;SDS011;8141;52.664;5.074;2023-05-14T06:03:23;5.53;;;2.30;;
16073;SDS011;8141;52.664;5.074;2023-05-14T06:05:49;5.03;;;2.13;;
16073;SDS011;8141;52.664;5.074;2023-05-14T06:08:16;2.67;;;2.00;;
16073;SDS011;8141;52.664;5.074;2023-05-14T06:10:42;3.63;;;2.00;;
16073;SDS011;8141;52.664;5.074;2023-05-14T06:13:08;3.00;;;2.27;;
16073;SDS011;8141;52.664;5.074;2023-05-14T06:15:34;2.77;;;2.00;;
16073;SDS011;8141;52.664;5.074;2023-05-14T06:18:00;5.07;;;2.33;;
16073;SDS011;8141;52.664;5.074;2023-05-14T06:20:26;5.70;;;2.00;;
16073;SDS011;8141;52.664;5.074;2023-05-14T06:22:51;4.13;;;2.13;;
16073;SDS011;8141;52.664;5.074;2023-05-14T06:25:17;5.60;;;2.20;;
16073;SDS011;8141;52.664;5.074;2023-05-14T06:27:43;5.37;;;1.97;;
16073;SDS011;8141;52.664;5.074;2023-05-14T06:30:09;4.00;;;2.20;;
16073;SDS011;8141;52.664;5.074;2023-05-14T06:32:35;7.20;;;2.70;;
16073;SDS011;8141;52.664;5.074;2023-05-14T06:35:01;5.87;;;2.37;;
16073;SDS011;8141;52.664;5.074;2023-05-14T06:37:28;7.17;;;2.37;;
16073;SDS011;8141;52.664;5.074;2023-05-14T06:39:53;4.90;;;2.20;;
16073;SDS011;8141;52.664;5.074;2023-05-14T06:42:19;4.57;;;2.10;;
16073;SDS011;8141;52.664;5.074;2023-05-14T06:44:45;4.90;;;1.93;;
16073;SDS011;8141;52.664;5.074;2023-05-14T06:47:11;4.30;;;2.20;;
16073;SDS011;8141;52.664;5.074;2023-05-14T06:49:37;5.57;;;2.00;;
16073;SDS011;8141;52.664;5.074;2023-05-14T06:52:03;3.70;;;1.87;;
16073;SDS011;8141;52.664;5.074;2023-05-14T06:54:29;4.23;;;2.00;;
16073;SDS011;8141;52.664;5.074;2023-05-14T06:56:55;5.90;;;1.83;;
16073;SDS011;8141;52.664;5.074;2023-05-14T06:59:21;4.47;;;1.80;;
16073;SDS011;8141;52.664;5.074;2023-05-14T07:01:47;4.70;;;1.93;;
16073;SDS011;8141;52.664;5.074;2023-05-14T07:04:13;5.07;;;2.00;;
16073;SDS011;8141;52.664;5.074;2023-05-14T07:06:38;6.20;;;2.13;;
16073;SDS011;8141;52.664;5.074;2023-05-14T07:09:04;4.13;;;1.80;;
16073;SDS011;8141;52.664;5.074;2023-05-14T07:11:31;2.43;;;1.60;;
16073;SDS011;8141;52.664;5.074;2023-05-14T07:13:57;4.10;;;2.03;;
16073;SDS011;8141;52.664;5.074;2023-05-14T07:16:23;4.20;;;1.97;;
16073;SDS011;8141;52.664;5.074;2023-05-14T07:18:50;6.30;;;2.10;;
16073;SDS011;8141;52.664;5.074;2023-05-14T07:21:16;6.27;;;2.60;;
16073;SDS011;8141;52.664;5.074;2023-05-14T07:23:42;4.00;;;1.90;;
16073;SDS011;8141;52.664;5.074;2023-05-14T07:26:07;5.17;;;2.30;;
16073;SDS011;8141;52.664;5.074;2023-05-14T07:28:33;4.73;;;2.00;;
16073;SDS011;8141;52.664;5.074;2023-05-14T07:30:59;5.00;;;2.10;;
16073;SDS011;8141;52.664;5.074;2023-05-14T07:33:25;8.73;;;1.70;;
16073;SDS011;8141;52.664;5.074;2023-05-14T07:35:51;7.10;;;2.10;;
16073;SDS011;8141;52.664;5.074;2023-05-14T07:38:18;6.93;;;2.17;;
16073;SDS011;8141;52.664;5.074;2023-05-14T07:40:44;4.83;;;2.30;;
16073;SDS011;8141;52.664;5.074;2023-05-14T07:43:10;5.20;;;2.13;;
16073;SDS011;8141;52.664;5.074;2023-05-14T07:45:36;10.87;;;2.70;;
16073;SDS011;8141;52.664;5.074;2023-05-14T07:48:03;9.23;;;2.30;;
16073;SDS011;8141;52.664;5.074;2023-05-14T07:50:29;4.27;;;2.23;;
16073;SDS011;8141;52.664;5.074;2023-05-14T07:52:55;9.00;;;3.43;;
16073;SDS011;8141;52.664;5.074;2023-05-14T07:55:21;9.53;;;2.47;;
16073;SDS011;8141;52.664;5.074;2023-05-14T07:57:47;5.60;;;2.40;;
16073;SDS011;8141;52.664;5.074;2023-05-14T08:00:13;8.90;;;2.67;;
16073;SDS011;8141;52.664;5.074;2023-05-14T08:02:39;5.63;;;2.40;;
16073;SDS011;8141;52.664;5.074;2023-05-14T08:05:06;7.73;;;2.50;;
16073;SDS011;8141;52.664;5.074;2023-05-14T08:07:33;8.43;;;2.60;;
16073;SDS011;8141;52.664;5.074;2023-05-14T08:09:59;7.10;;;2.60;;
16073;SDS011;8141;52.664;5.074;2023-05-14T08:12:25;4.33;;;2.40;;
16073;SDS011;8141;52.664;5.074;2023-05-14T08:14:51;9.83;;;2.67;;
16073;SDS011;8141;52.664;5.074;2023-05-14T08:17:17;8.30;;;2.87;;
16073;SDS011;8141;52.664;5.074;2023-05-14T08:19:42;8.77;;;2.80;;
16073;SDS011;8141;52.664;5.074;2023-05-14T08:22:08;8.60;;;2.80;;
16073;SDS011;8141;52.664;5.074;2023-05-14T08:24:34;5.97;;;3.00;;
16073;SDS011;8141;52.664;5.074;2023-05-14T08:27:00;5.87;;;2.43;;
16073;SDS011;8141;52.664;5.074;2023-05-14T08:29:26;6.97;;;2.93;;
16073;SDS011;8141;52.664;5.074;2023-05-14T08:31:52;5.50;;;2.43;;
16073;SDS011;8141;52.664;5.074;2023-05-14T08:34:18;8.77;;;2.90;;
16073;SDS011;8141;52.664;5.074;2023-05-14T08:36:44;9.33;;;2.93;;
16073;SDS011;8141;52.664;5.074;2023-05-14T08:39:09;6.93;;;3.07;;
16073;SDS011;8141;52.664;5.074;2023-05-14T08:41:35;10.03;;;2.53;;
16073;SDS011;8141;52.664;5.074;2023-05-14T08:46:43;11.30;;;3.20;;
16073;SDS011;8141;52.664;5.074;2023-05-14T08:52:05;7.03;;;2.53;;
16073;SDS011;8141;52.664;5.074;2023-05-14T08:54:33;7.87;;;2.60;;
16073;SDS011;8141;52.664;5.074;2023-05-14T08:56:59;5.73;;;2.30;;
16073;SDS011;8141;52.664;5.074;2023-05-14T08:59:25;4.67;;;2.03;;
16073;SDS011;8141;52.664;5.074;2023-05-14T09:01:51;6.67;;;2.20;;
16073;SDS011;8141;52.664;5.074;2023-05-14T09:04:19;7.80;;;2.50;;
16073;SDS011;8141;52.664;5.074;2023-05-14T09:06:50;6.33;;;2.97;;
16073;SDS011;8141;52.664;5.074;2023-05-14T09:09:18;5.67;;;2.30;;
16073;SDS011;8141;52.664;5.074;2023-05-14T09:11:50;5.87;;;2.33;;
16073;SDS011;8141;52.664;5.074;2023-05-14T09:14:17;6.37;;;2.60;;
16073;SDS011;8141;52.664;5.074;2023-05-14T09:16:44;6.50;;;2.60;;
16073;SDS011;8141;52.664;5.074;2023-05-14T09:19:12;8.33;;;3.13;;
16073;SDS011;8141;52.664;5.074;2023-05-14T09:21:40;4.60;;;2.53;;
16073;SDS011;8141;52.664;5.074;2023-05-14T09:24:06;5.33;;;2.67;;
16073;SDS011;8141;52.664;5.074;2023-05-14T09:26:33;11.80;;;3.23;;
16073;SDS011;8141;52.664;5.074;2023-05-14T09:29:00;7.17;;;3.03;;
16073;SDS011;8141;52.664;5.074;2023-05-14T09:31:28;9.23;;;3.50;;
16073;SDS011;8141;52.664;5.074;2023-05-14T09:33:55;7.73;;;3.30;;
16073;SDS011;8141;52.664;5.074;2023-05-14T09:36:22;10.40;;;3.27;;
16073;SDS011;8141;52.664;5.074;2023-05-14T09:38:51;10.57;;;3.80;;
16073;SDS011;8141;52.664;5.074;2023-05-14T09:41:20;8.37;;;3.73;;
16073;SDS011;8141;52.664;5.074;2023-05-14T09:43:47;7.10;;;2.93;;
16073;SDS011;8141;52.664;5.074;2023-05-14T09:46:14;5.57;;;3.40;;
16073;SDS011;8141;52.664;5.074;2023-05-14T09:48:40;7.40;;;2.97;;
16073;SDS011;8141;52.664;5.074;2023-05-14T09:51:06;5.03;;;2.90;;
16073;SDS011;8141;52.664;5.074;2023-05-14T09:53:33;6.37;;;3.00;;
16073;SDS011;8141;52.664;5.074;2023-05-14T09:55:59;7.77;;;3.37;;
16073;SDS011;8141;52.664;5.074;2023-05-14T09:58:26;4.27;;;2.53;;
16073;SDS011;8141;52.664;5.074;2023-05-14T10:00:51;6.73;;;2.87;;
16073;SDS011;8141;52.664;5.074;2023-05-14T10:03:19;6.83;;;2.90;;
16073;SDS011;8141;52.664;5.074;2023-05-14T10:05:49;6.97;;;3.20;;
16073;SDS011;8141;52.664;5.074;2023-05-14T10:10:55;14.45;;;3.00;;
16073;SDS011;8141;52.664;5.074;2023-05-14T10:13:26;10.13;;;2.90;;
16073;SDS011;8141;52.664;5.074;2023-05-14T10:16:07;7.57;;;2.83;;
16073;SDS011;8141;52.664;5.074;2023-05-14T10:18:54;8.33;;;3.20;;
16073;SDS011;8141;52.664;5.074;2023-05-14T10:21:25;9.07;;;3.30;;
16073;SDS011;8141;52.664;5.074;2023-05-14T10:23:55;6.67;;;2.83;;
16073;SDS011;8141;52.664;5.074;2023-05-14T10:26:21;5.20;;;2.80;;
16073;SDS011;8141;52.664;5.074;2023-05-14T10:28:47;9.83;;;2.70;;
16073;SDS011;8141;52.664;5.074;2023-05-14T10:31:13;7.70;;;2.80;;
16073;SDS011;8141;52.664;5.074;2023-05-14T10:33:49;7.37;;;2.80;;
16073;SDS011;8141;52.664;5.074;2023-05-14T10:36:16;5.18;;;2.60;;
16073;SDS011;8141;52.664;5.074;2023-05-14T10:38:42;7.70;;;3.10;;
16073;SDS011;8141;52.664;5.074;2023-05-14T10:41:09;4.60;;;2.67;;
16073;SDS011;8141;52.664;5.074;2023-05-14T10:43:41;7.43;;;2.83;;
16073;SDS011;8141;52.664;5.074;2023-05-14T10:46:08;5.73;;;2.53;;
16073;SDS011;8141;52.664;5.074;2023-05-14T10:48:36;5.87;;;2.87;;
16073;SDS011;8141;52.664;5.074;2023-05-14T10:51:09;8.20;;;3.20;;
16073;SDS011;8141;52.664;5.074;2023-05-14T10:53:37;7.30;;;2.83;;
16073;SDS011;8141;52.664;5.074;2023-05-14T10:56:06;6.83;;;2.87;;
16073;SDS011;8141;52.664;5.074;2023-05-14T10:58:37;7.50;;;2.70;;
16073;SDS011;8141;52.664;5.074;2023-05-14T11:01:06;5.57;;;2.47;;
16073;SDS011;8141;52.664;5.074;2023-05-14T11:03:41;5.57;;;2.70;;
16073;SDS011;8141;52.664;5.074;2023-05-14T11:06:10;7.27;;;2.80;;
16073;SDS011;8141;52.664;5.074;2023-05-14T11:08:39;5.30;;;2.73;;
16073;SDS011;8141;52.664;5.074;2023-05-14T11:11:05;6.77;;;3.17;;
16073;SDS011;8141;52.664;5.074;2023-05-14T11:13:33;5.27;;;2.30;;
16073;SDS011;8141;52.664;5.074;2023-05-14T11:16:00;4.50;;;2.40;;
16073;SDS011;8141;52.664;5.074;2023-05-14T11:18:31;5.30;;;2.87;;
16073;SDS011;8141;52.664;5.074;2023-05-14T11:20:58;7.70;;;2.77;;
16073;SDS011;8141;52.664;5.074;2023-05-14T11:23:25;5.20;;;2.27;;
16073;SDS011;8141;52.664;5.074;2023-05-14T11:25:51;4.50;;;2.60;;
16073;SDS011;8141;52.664;5.074;2023-05-14T11:28:19;6.37;;;2.80;;
16073;SDS011;8141;52.664;5.074;2023-05-14T11:30:46;5.23;;;3.27;;
16073;SDS011;8141;52.664;5.074;2023-05-14T11:33:13;4.57;;;2.73;;
16073;SDS011;8141;52.664;5.074;2023-05-14T11:35:40;8.53;;;2.83;;
16073;SDS011;8141;52.664;5.074;2023-05-14T11:38:13;13.33;;;3.40;;
16073;SDS011;8141;52.664;5.074;2023-05-14T11:40:56;4.97;;;2.50;;
16073;SDS011;8141;52.664;5.074;2023-05-14T11:43:23;5.33;;;2.47;;
16073;SDS011;8141;52.664;5.074;2023-05-14T11:45:53;6.03;;;2.80;;
16073;SDS011;8141;52.664;5.074;2023-05-14T11:48:20;4.90;;;2.50;;
16073;SDS011;8141;52.664;5.074;2023-05-14T11:50:48;5.60;;;2.80;;
16073;SDS011;8141;52.664;5.074;2023-05-14T11:53:21;8.33;;;2.97;;
16073;SDS011;8141;52.664;5.074;2023-05-14T11:55:51;4.87;;;2.60;;
16073;SDS011;8141;52.664;5.074;2023-05-14T11:58:21;5.03;;;2.87;;
16073;SDS011;8141;52.664;5.074;2023-05-14T12:00:48;3.70;;;2.47;;
16073;SDS011;8141;52.664;5.074;2023-05-14T12:03:15;6.90;;;2.40;;
16073;SDS011;8141;52.664;5.074;2023-05-14T12:05:59;8.47;;;3.73;;
16073;SDS011;8141;52.664;5.074;2023-05-14T12:08:27;9.07;;;3.20;;
16073;SDS011;8141;52.664;5.074;2023-05-14T12:10:56;5.53;;;2.73;;
16073;SDS011;8141;52.664;5.074;2023-05-14T12:13:25;4.30;;;3.23;;
16073;SDS011;8141;52.664;5.074;2023-05-14T12:15:59;7.83;;;3.00;;
16073;SDS011;8141;52.664;5.074;2023-05-14T12:18:27;8.70;;;2.53;;
16073;SDS011;8141;52.664;5.074;2023-05-14T12:20:55;3.73;;;2.80;;
16073;SDS011;8141;52.664;5.074;2023-05-14T12:23:27;5.20;;;3.10;;
16073;SDS011;8141;52.664;5.074;2023-05-14T12:25:59;6.83;;;3.70;;
16073;SDS011;8141;52.664;5.074;2023-05-14T12:28:30;4.97;;;3.22;;
16073;SDS011;8141;52.664;5.074;2023-05-14T12:30:57;6.03;;;2.83;;
16073;SDS011;8141;52.664;5.074;2023-05-14T12:33:25;5.67;;;2.93;;
16073;SDS011;8141;52.664;5.074;2023-05-14T12:35:54;5.10;;;2.70;;
16073;SDS011;8141;52.664;5.074;2023-05-14T12:38:26;5.87;;;2.63;;
16073;SDS011;8141;52.664;5.074;2023-05-14T12:40:52;4.30;;;2.57;;
16073;SDS011;8141;52.664;5.074;2023-05-14T12:43:18;6.40;;;3.00;;
16073;SDS011;8141;52.664;5.074;2023-05-14T12:45:44;4.47;;;2.63;;
16073;SDS011;8141;52.664;5.074;2023-05-14T12:48:10;6.10;;;2.47;;
16073;SDS011;8141;52.664;5.074;2023-05-14T12:50:37;5.20;;;2.50;;
16073;SDS011;8141;52.664;5.074;2023-05-14T12:53:03;3.27;;;2.40;;
16073;SDS011;8141;52.664;5.074;2023-05-14T12:55:29;6.17;;;2.73;;
16073;SDS011;8141;52.664;5.074;2023-05-14T12:57:55;4.77;;;2.63;;
16073;SDS011;8141;52.664;5.074;2023-05-14T13:00:21;5.73;;;2.60;;
16073;SDS011;8141;52.664;5.074;2023-05-14T13:02:47;8.63;;;2.93;;
16073;SDS011;8141;52.664;5.074;2023-05-14T13:05:13;5.37;;;2.80;;
16073;SDS011;8141;52.664;5.074;2023-05-14T13:07:39;4.77;;;2.87;;
16073;SDS011;8141;52.664;5.074;2023-05-14T13:10:05;3.93;;;3.00;;
16073;SDS011;8141;52.664;5.074;2023-05-14T13:12:32;5.23;;;2.40;;
16073;SDS011;8141;52.664;5.074;2023-05-14T13:14:58;5.53;;;2.50;;
16073;SDS011;8141;52.664;5.074;2023-05-14T13:17:23;4.40;;;2.90;;
16073;SDS011;8141;52.664;5.074;2023-05-14T13:19:49;5.57;;;2.53;;
16073;SDS011;8141;52.664;5.074;2023-05-14T13:22:15;4.53;;;2.33;;
16073;SDS011;8141;52.664;5.074;2023-05-14T13:24:42;7.60;;;2.87;;
16073;SDS011;8141;52.664;5.074;2023-05-14T13:27:08;3.47;;;2.70;;
16073;SDS011;8141;52.664;5.074;2023-05-14T13:29:34;5.10;;;2.90;;
16073;SDS011;8141;52.664;5.074;2023-05-14T13:32:00;4.63;;;3.00;;
16073;SDS011;8141;52.664;5.074;2023-05-14T13:34:25;4.17;;;2.60;;
16073;SDS011;8141;52.664;5.074;2023-05-14T13:36:51;3.80;;;2.63;;
16073;SDS011;8141;52.664;5.074;2023-05-14T13:39:17;3.57;;;2.50;;
16073;SDS011;8141;52.664;5.074;2023-05-14T13:41:46;5.47;;;2.20;;
16073;SDS011;8141;52.664;5.074;2023-05-14T13:44:14;4.27;;;2.50;;
16073;SDS011;8141;52.664;5.074;2023-05-14T13:46:40;4.53;;;2.30;;
16073;SDS011;8141;52.664;5.074;2023-05-14T13:49:06;4.63;;;2.63;;
16073;SDS011;8141;52.664;5.074;2023-05-14T13:51:32;5.93;;;2.90;;
16073;SDS011;8141;52.664;5.074;2023-05-14T13:53:57;4.40;;;2.50;;
16073;SDS011;8141;52.664;5.074;2023-05-14T13:56:23;4.63;;;2.57;;
16073;SDS011;8141;52.664;5.074;2023-05-14T13:58:49;7.00;;;3.20;;
16073;SDS011;8141;52.664;5.074;2023-05-14T14:01:15;4.43;;;2.50;;
16073;SDS011;8141;52.664;5.074;2023-05-14T14:03:41;3.80;;;2.60;;
16073;SDS011;8141;52.664;5.074;2023-05-14T14:06:07;3.83;;;3.03;;
16073;SDS011;8141;52.664;5.074;2023-05-14T14:08:32;6.80;;;3.30;;
16073;SDS011;8141;52.664;5.074;2023-05-14T14:10:58;4.33;;;2.70;;
16073;SDS011;8141;52.664;5.074;2023-05-14T14:13:24;7.77;;;2.83;;
16073;SDS011;8141;52.664;5.074;2023-05-14T14:15:50;4.43;;;2.93;;
16073;SDS011;8141;52.664;5.074;2023-05-14T14:18:16;5.07;;;2.97;;
16073;SDS011;8141;52.664;5.074;2023-05-14T14:20:41;5.33;;;2.90;;
16073;SDS011;8141;52.664;5.074;2023-05-14T14:23:07;5.07;;;2.90;;
16073;SDS011;8141;52.664;5.074;2023-05-14T14:25:33;4.33;;;2.50;;
16073;SDS011;8141;52.664;5.074;2023-05-14T14:27:58;6.37;;;2.87;;
16073;SDS011;8141;52.664;5.074;2023-05-14T14:30:25;5.13;;;3.67;;
16073;SDS011;8141;52.664;5.074;2023-05-14T14:32:50;4.10;;;2.83;;
16073;SDS011;8141;52.664;5.074;2023-05-14T14:35:17;6.03;;;3.40;;
16073;SDS011;8141;52.664;5.074;2023-05-14T14:37:44;5.53;;;3.03;;
16073;SDS011;8141;52.664;5.074;2023-05-14T14:40:14;6.03;;;3.17;;
16073;SDS011;8141;52.664;5.074;2023-05-14T14:42:41;5.50;;;2.77;;
16073;SDS011;8141;52.664;5.074;2023-05-14T14:45:07;6.53;;;3.27;;
16073;SDS011;8141;52.664;5.074;2023-05-14T14:47:34;5.13;;;3.30;;
16073;SDS011;8141;52.664;5.074;2023-05-14T14:50:00;6.10;;;3.10;;
16073;SDS011;8141;52.664;5.074;2023-05-14T14:52:26;7.40;;;3.23;;
16073;SDS011;8141;52.664;5.074;2023-05-14T14:54:55;6.73;;;3.20;;
16073;SDS011;8141;52.664;5.074;2023-05-14T14:57:21;6.07;;;3.63;;
16073;SDS011;8141;52.664;5.074;2023-05-14T14:59:47;6.70;;;3.30;;
16073;SDS011;8141;52.664;5.074;2023-05-14T15:02:13;4.50;;;3.07;;
16073;SDS011;8141;52.664;5.074;2023-05-14T15:04:38;5.77;;;3.57;;
16073;SDS011;8141;52.664;5.074;2023-05-14T15:07:04;5.93;;;3.60;;
16073;SDS011;8141;52.664;5.074;2023-05-14T15:09:30;7.13;;;3.70;;
16073;SDS011;8141;52.664;5.074;2023-05-14T15:11:56;6.47;;;3.90;;
16073;SDS011;8141;52.664;5.074;2023-05-14T15:14:22;9.33;;;4.63;;
16073;SDS011;8141;52.664;5.074;2023-05-14T15:16:47;7.20;;;3.97;;